sensor_id;sensor_type;location;lat;lon;timestamp;P1;durP1;ratioP1;P2;durP2;ratioP2
80852;SDS011;70270;43.434;28.338;2023-08-20T00:02:17;18.13;;;11.10;;
80852;SDS011;70270;43.434;28.338;2023-08-20T00:05:03;16.33;;;11.75;;
80852;SDS011;70270;43.434;28.338;2023-08-20T00:07:48;18.75;;;11.55;;
80852;SDS011;70270;43.434;28.338;2023-08-20T00:10:33;15.23;;;11.98;;
80852;SDS011;70270;43.434;28.338;2023-08-20T00:13:26;15.10;;;12.27;;
80852;SDS011;70270;43.434;28.338;2023-08-20T00:16:12;19.80;;;11.82;;
80852;SDS011;70270;43.434;28.338;2023-08-20T00:18:57;17.08;;;12.30;;
80852;SDS011;70270;43.434;28.338;2023-08-20T00:21:42;16.75;;;12.10;;
80852;SDS011;70270;43.434;28.338;2023-08-20T00:24:28;16.13;;;11.27;;
80852;SDS011;70270;43.434;28.338;2023-08-20T00:27:13;16.05;;;11.10;;
80852;SDS011;70270;43.434;28.338;2023-08-20T00:29:57;20.23;;;13.20;;
80852;SDS011;70270;43.434;28.338;2023-08-20T00:32:41;19.27;;;12.75;;
80852;SDS011;70270;43.434;28.338;2023-08-20T00:35:26;15.63;;;12.48;;
80852;SDS011;70270;43.434;28.338;2023-08-20T00:38:11;17.48;;;12.18;;
80852;SDS011;70270;43.434;28.338;2023-08-20T00:40:55;15.32;;;11.52;;
80852;SDS011;70270;43.434;28.338;2023-08-20T00:43:39;17.55;;;12.18;;
80852;SDS011;70270;43.434;28.338;2023-08-20T00:46:24;15.45;;;12.10;;
80852;SDS011;70270;43.434;28.338;2023-08-20T00:49:09;17.45;;;12.10;;
80852;SDS011;70270;43.434;28.338;2023-08-20T00:51:53;16.50;;;12.35;;
80852;SDS011;70270;43.434;28.338;2023-08-20T00:54:39;20.95;;;11.27;;
80852;SDS011;70270;43.434;28.338;2023-08-20T00:57:24;14.90;;;11.60;;
80852;SDS011;70270;43.434;28.338;2023-08-20T01:00:11;15.75;;;11.45;;
80852;SDS011;70270;43.434;28.338;2023-08-20T01:02:55;16.13;;;11.77;;
80852;SDS011;70270;43.434;28.338;2023-08-20T01:05:43;16.30;;;12.27;;
80852;SDS011;70270;43.434;28.338;2023-08-20T01:08:37;16.02;;;11.60;;
80852;SDS011;70270;43.434;28.338;2023-08-20T01:11:29;16.73;;;11.85;;
80852;SDS011;70270;43.434;28.338;2023-08-20T01:14:17;18.17;;;12.20;;
80852;SDS011;70270;43.434;28.338;2023-08-20T01:17:02;15.30;;;11.55;;
80852;SDS011;70270;43.434;28.338;2023-08-20T01:19:46;16.33;;;12.38;;
80852;SDS011;70270;43.434;28.338;2023-08-20T01:28:52;15.05;;;11.20;;
80852;SDS011;70270;43.434;28.338;2023-08-20T01:31:39;17.23;;;11.90;;
80852;SDS011;70270;43.434;28.338;2023-08-20T01:34:24;15.48;;;11.20;;
80852;SDS011;70270;43.434;28.338;2023-08-20T01:37:09;14.73;;;11.73;;
80852;SDS011;70270;43.434;28.338;2023-08-20T01:39:54;16.27;;;11.90;;
80852;SDS011;70270;43.434;28.338;2023-08-20T01:42:38;14.30;;;11.23;;
80852;SDS011;70270;43.434;28.338;2023-08-20T01:45:24;15.15;;;12.15;;
80852;SDS011;70270;43.434;28.338;2023-08-20T01:48:09;22.30;;;12.07;;
80852;SDS011;70270;43.434;28.338;2023-08-20T01:50:54;16.77;;;12.35;;
80852;SDS011;70270;43.434;28.338;2023-08-20T01:53:39;15.05;;;11.88;;
80852;SDS011;70270;43.434;28.338;2023-08-20T01:56:24;16.52;;;11.77;;
80852;SDS011;70270;43.434;28.338;2023-08-20T01:59:09;15.73;;;11.25;;
80852;SDS011;70270;43.434;28.338;2023-08-20T02:01:53;16.42;;;11.98;;
80852;SDS011;70270;43.434;28.338;2023-08-20T02:04:38;16.77;;;12.18;;
80852;SDS011;70270;43.434;28.338;2023-08-20T02:07:22;12.88;;;10.65;;
80852;SDS011;70270;43.434;28.338;2023-08-20T02:10:07;15.40;;;11.05;;
80852;SDS011;70270;43.434;28.338;2023-08-20T02:12:52;16.02;;;11.40;;
80852;SDS011;70270;43.434;28.338;2023-08-20T02:15:36;13.88;;;11.20;;
80852;SDS011;70270;43.434;28.338;2023-08-20T02:18:21;15.23;;;11.23;;
80852;SDS011;70270;43.434;28.338;2023-08-20T02:21:06;20.55;;;11.55;;
80852;SDS011;70270;43.434;28.338;2023-08-20T02:23:50;14.50;;;10.98;;
80852;SDS011;70270;43.434;28.338;2023-08-20T02:26:35;15.40;;;11.52;;
80852;SDS011;70270;43.434;28.338;2023-08-20T02:29:20;16.58;;;11.25;;
80852;SDS011;70270;43.434;28.338;2023-08-20T02:32:04;15.68;;;10.55;;
80852;SDS011;70270;43.434;28.338;2023-08-20T02:34:50;15.25;;;11.77;;
80852;SDS011;70270;43.434;28.338;2023-08-20T02:37:35;20.33;;;11.85;;
80852;SDS011;70270;43.434;28.338;2023-08-20T02:40:20;17.52;;;11.32;;
80852;SDS011;70270;43.434;28.338;2023-08-20T02:43:05;20.88;;;13.02;;
80852;SDS011;70270;43.434;28.338;2023-08-20T02:45:50;19.23;;;12.38;;
80852;SDS011;70270;43.434;28.338;2023-08-20T02:48:35;15.05;;;11.75;;
80852;SDS011;70270;43.434;28.338;2023-08-20T02:51:20;14.20;;;10.88;;
80852;SDS011;70270;43.434;28.338;2023-08-20T02:54:05;14.77;;;11.68;;
80852;SDS011;70270;43.434;28.338;2023-08-20T02:56:50;13.02;;;11.45;;
80852;SDS011;70270;43.434;28.338;2023-08-20T02:59:34;14.48;;;11.00;;
80852;SDS011;70270;43.434;28.338;2023-08-20T03:02:19;23.73;;;11.48;;
80852;SDS011;70270;43.434;28.338;2023-08-20T03:05:04;16.40;;;11.23;;
80852;SDS011;70270;43.434;28.338;2023-08-20T03:07:50;18.52;;;12.02;;
80852;SDS011;70270;43.434;28.338;2023-08-20T03:10:34;15.00;;;11.38;;
80852;SDS011;70270;43.434;28.338;2023-08-20T03:13:20;14.05;;;10.73;;
80852;SDS011;70270;43.434;28.338;2023-08-20T03:18:49;13.05;;;10.80;;
80852;SDS011;70270;43.434;28.338;2023-08-20T03:21:33;16.45;;;10.82;;
80852;SDS011;70270;43.434;28.338;2023-08-20T03:24:18;16.63;;;11.13;;
80852;SDS011;70270;43.434;28.338;2023-08-20T03:27:02;18.00;;;11.38;;
80852;SDS011;70270;43.434;28.338;2023-08-20T03:29:47;20.35;;;11.55;;
80852;SDS011;70270;43.434;28.338;2023-08-20T03:32:31;17.55;;;11.68;;
80852;SDS011;70270;43.434;28.338;2023-08-20T03:35:16;18.05;;;11.40;;
80852;SDS011;70270;43.434;28.338;2023-08-20T03:38:00;17.38;;;11.82;;
80852;SDS011;70270;43.434;28.338;2023-08-20T03:40:46;14.65;;;11.13;;
80852;SDS011;70270;43.434;28.338;2023-08-20T03:43:30;19.05;;;12.50;;
80852;SDS011;70270;43.434;28.338;2023-08-20T03:46:15;15.23;;;10.40;;
80852;SDS011;70270;43.434;28.338;2023-08-20T03:49:01;13.95;;;11.30;;
80852;SDS011;70270;43.434;28.338;2023-08-20T03:51:45;17.83;;;11.65;;
80852;SDS011;70270;43.434;28.338;2023-08-20T03:54:30;15.95;;;10.15;;
80852;SDS011;70270;43.434;28.338;2023-08-20T03:57:14;20.25;;;11.63;;
80852;SDS011;70270;43.434;28.338;2023-08-20T03:59:59;19.73;;;10.50;;
80852;SDS011;70270;43.434;28.338;2023-08-20T04:02:43;17.30;;;11.65;;
80852;SDS011;70270;43.434;28.338;2023-08-20T04:05:28;19.02;;;11.52;;
80852;SDS011;70270;43.434;28.338;2023-08-20T04:08:13;16.58;;;10.90;;
80852;SDS011;70270;43.434;28.338;2023-08-20T04:10:57;14.05;;;10.45;;
80852;SDS011;70270;43.434;28.338;2023-08-20T04:13:42;16.33;;;10.95;;
80852;SDS011;70270;43.434;28.338;2023-08-20T04:16:29;19.48;;;11.93;;
80852;SDS011;70270;43.434;28.338;2023-08-20T04:19:14;15.93;;;11.02;;
80852;SDS011;70270;43.434;28.338;2023-08-20T04:21:59;15.95;;;11.30;;
80852;SDS011;70270;43.434;28.338;2023-08-20T04:24:44;15.13;;;11.05;;
80852;SDS011;70270;43.434;28.338;2023-08-20T04:27:28;15.30;;;10.90;;
80852;SDS011;70270;43.434;28.338;2023-08-20T04:30:13;15.68;;;11.10;;
80852;SDS011;70270;43.434;28.338;2023-08-20T04:32:57;17.92;;;12.00;;
80852;SDS011;70270;43.434;28.338;2023-08-20T04:35:42;15.95;;;11.02;;
80852;SDS011;70270;43.434;28.338;2023-08-20T04:38:26;16.45;;;10.45;;
80852;SDS011;70270;43.434;28.338;2023-08-20T04:41:11;18.08;;;11.65;;
80852;SDS011;70270;43.434;28.338;2023-08-20T04:43:56;15.02;;;11.02;;
80852;SDS011;70270;43.434;28.338;2023-08-20T04:46:42;15.90;;;9.98;;
80852;SDS011;70270;43.434;28.338;2023-08-20T04:49:27;15.88;;;10.23;;
80852;SDS011;70270;43.434;28.338;2023-08-20T04:52:14;15.27;;;11.18;;
80852;SDS011;70270;43.434;28.338;2023-08-20T04:54:59;15.90;;;10.30;;
80852;SDS011;70270;43.434;28.338;2023-08-20T04:57:44;13.38;;;10.60;;
80852;SDS011;70270;43.434;28.338;2023-08-20T05:00:28;15.52;;;10.70;;
80852;SDS011;70270;43.434;28.338;2023-08-20T05:03:22;13.50;;;10.02;;
80852;SDS011;70270;43.434;28.338;2023-08-20T05:06:07;15.10;;;10.50;;
80852;SDS011;70270;43.434;28.338;2023-08-20T05:08:51;13.02;;;9.93;;
80852;SDS011;70270;43.434;28.338;2023-08-20T05:11:38;17.35;;;10.60;;
80852;SDS011;70270;43.434;28.338;2023-08-20T05:14:23;15.02;;;10.30;;
80852;SDS011;70270;43.434;28.338;2023-08-20T05:17:07;16.10;;;10.40;;
80852;SDS011;70270;43.434;28.338;2023-08-20T05:19:51;18.55;;;9.60;;
80852;SDS011;70270;43.434;28.338;2023-08-20T05:22:36;15.18;;;10.05;;
80852;SDS011;70270;43.434;28.338;2023-08-20T05:25:20;19.77;;;11.13;;
80852;SDS011;70270;43.434;28.338;2023-08-20T05:28:08;14.00;;;10.13;;
80852;SDS011;70270;43.434;28.338;2023-08-20T05:30:56;16.67;;;11.15;;
80852;SDS011;70270;43.434;28.338;2023-08-20T05:33:41;13.38;;;9.40;;
80852;SDS011;70270;43.434;28.338;2023-08-20T05:36:26;13.18;;;10.38;;
80852;SDS011;70270;43.434;28.338;2023-08-20T05:39:10;14.52;;;10.38;;
80852;SDS011;70270;43.434;28.338;2023-08-20T05:41:55;14.65;;;10.20;;
80852;SDS011;70270;43.434;28.338;2023-08-20T05:44:42;14.55;;;10.57;;
80852;SDS011;70270;43.434;28.338;2023-08-20T05:47:30;16.20;;;9.93;;
80852;SDS011;70270;43.434;28.338;2023-08-20T05:50:15;14.52;;;9.55;;
80852;SDS011;70270;43.434;28.338;2023-08-20T05:53:00;12.80;;;10.02;;
80852;SDS011;70270;43.434;28.338;2023-08-20T05:55:48;15.15;;;10.25;;
80852;SDS011;70270;43.434;28.338;2023-08-20T05:58:33;11.60;;;9.43;;
80852;SDS011;70270;43.434;28.338;2023-08-20T06:01:18;12.32;;;9.85;;
80852;SDS011;70270;43.434;28.338;2023-08-20T06:04:03;15.43;;;9.55;;
80852;SDS011;70270;43.434;28.338;2023-08-20T06:09:33;17.40;;;9.15;;
80852;SDS011;70270;43.434;28.338;2023-08-20T06:12:18;14.20;;;9.50;;
80852;SDS011;70270;43.434;28.338;2023-08-20T06:15:04;15.23;;;10.07;;
80852;SDS011;70270;43.434;28.338;2023-08-20T06:17:50;13.55;;;8.90;;
80852;SDS011;70270;43.434;28.338;2023-08-20T06:20:35;16.48;;;8.95;;
80852;SDS011;70270;43.434;28.338;2023-08-20T06:23:21;14.75;;;9.80;;
80852;SDS011;70270;43.434;28.338;2023-08-20T06:26:09;14.80;;;9.68;;
80852;SDS011;70270;43.434;28.338;2023-08-20T06:28:53;13.23;;;9.13;;
80852;SDS011;70270;43.434;28.338;2023-08-20T06:31:37;14.98;;;9.80;;
80852;SDS011;70270;43.434;28.338;2023-08-20T06:34:22;15.25;;;9.32;;
80852;SDS011;70270;43.434;28.338;2023-08-20T06:37:06;15.60;;;9.82;;
80852;SDS011;70270;43.434;28.338;2023-08-20T06:39:51;12.38;;;9.60;;
80852;SDS011;70270;43.434;28.338;2023-08-20T06:42:35;14.57;;;9.27;;
80852;SDS011;70270;43.434;28.338;2023-08-20T06:45:20;12.48;;;10.38;;
80852;SDS011;70270;43.434;28.338;2023-08-20T06:48:04;13.73;;;9.63;;
80852;SDS011;70270;43.434;28.338;2023-08-20T06:50:49;51.78;;;14.85;;
80852;SDS011;70270;43.434;28.338;2023-08-20T06:53:33;16.40;;;9.48;;
80852;SDS011;70270;43.434;28.338;2023-08-20T06:56:18;15.32;;;9.50;;
80852;SDS011;70270;43.434;28.338;2023-08-20T06:59:02;16.98;;;9.90;;
80852;SDS011;70270;43.434;28.338;2023-08-20T07:01:48;12.65;;;9.13;;
80852;SDS011;70270;43.434;28.338;2023-08-20T07:04:32;14.25;;;9.05;;
80852;SDS011;70270;43.434;28.338;2023-08-20T07:07:17;11.82;;;9.48;;
80852;SDS011;70270;43.434;28.338;2023-08-20T07:10:01;12.27;;;8.60;;
80852;SDS011;70270;43.434;28.338;2023-08-20T07:12:47;14.18;;;10.13;;
80852;SDS011;70270;43.434;28.338;2023-08-20T07:15:32;11.02;;;8.38;;
80852;SDS011;70270;43.434;28.338;2023-08-20T07:18:16;12.48;;;9.35;;
80852;SDS011;70270;43.434;28.338;2023-08-20T07:21:01;12.85;;;9.48;;
80852;SDS011;70270;43.434;28.338;2023-08-20T07:23:45;14.75;;;9.05;;
80852;SDS011;70270;43.434;28.338;2023-08-20T07:26:30;13.35;;;9.60;;
80852;SDS011;70270;43.434;28.338;2023-08-20T07:29:15;13.02;;;9.13;;
80852;SDS011;70270;43.434;28.338;2023-08-20T07:31:59;15.75;;;10.95;;
80852;SDS011;70270;43.434;28.338;2023-08-20T07:34:47;14.65;;;9.65;;
80852;SDS011;70270;43.434;28.338;2023-08-20T07:37:31;18.65;;;9.32;;
80852;SDS011;70270;43.434;28.338;2023-08-20T07:40:16;15.57;;;9.75;;
80852;SDS011;70270;43.434;28.338;2023-08-20T07:43:01;16.73;;;10.45;;
80852;SDS011;70270;43.434;28.338;2023-08-20T07:45:49;17.77;;;11.18;;
80852;SDS011;70270;43.434;28.338;2023-08-20T07:48:33;17.00;;;9.77;;
80852;SDS011;70270;43.434;28.338;2023-08-20T07:51:18;16.52;;;9.57;;
80852;SDS011;70270;43.434;28.338;2023-08-20T07:54:03;18.02;;;10.25;;
80852;SDS011;70270;43.434;28.338;2023-08-20T07:56:48;20.58;;;10.38;;
80852;SDS011;70270;43.434;28.338;2023-08-20T07:59:32;15.20;;;10.82;;
80852;SDS011;70270;43.434;28.338;2023-08-20T08:02:17;15.70;;;9.57;;
80852;SDS011;70270;43.434;28.338;2023-08-20T08:05:04;21.13;;;11.18;;
80852;SDS011;70270;43.434;28.338;2023-08-20T08:07:49;14.70;;;9.73;;
80852;SDS011;70270;43.434;28.338;2023-08-20T08:10:34;12.55;;;9.30;;
80852;SDS011;70270;43.434;28.338;2023-08-20T08:13:19;15.85;;;9.32;;
80852;SDS011;70270;43.434;28.338;2023-08-20T08:16:05;22.10;;;8.93;;
80852;SDS011;70270;43.434;28.338;2023-08-20T08:18:50;15.48;;;8.50;;
80852;SDS011;70270;43.434;28.338;2023-08-20T08:21:34;12.80;;;8.57;;
80852;SDS011;70270;43.434;28.338;2023-08-20T08:24:19;14.85;;;8.52;;
80852;SDS011;70270;43.434;28.338;2023-08-20T08:27:03;14.65;;;8.77;;
80852;SDS011;70270;43.434;28.338;2023-08-20T08:29:47;14.35;;;8.98;;
80852;SDS011;70270;43.434;28.338;2023-08-20T08:32:36;13.43;;;7.80;;
80852;SDS011;70270;43.434;28.338;2023-08-20T08:35:20;13.27;;;8.00;;
80852;SDS011;70270;43.434;28.338;2023-08-20T08:38:05;12.85;;;7.53;;
80852;SDS011;70270;43.434;28.338;2023-08-20T08:40:49;13.65;;;7.50;;
80852;SDS011;70270;43.434;28.338;2023-08-20T08:43:34;10.30;;;8.20;;
80852;SDS011;70270;43.434;28.338;2023-08-20T08:46:19;18.58;;;7.45;;
80852;SDS011;70270;43.434;28.338;2023-08-20T08:49:05;14.13;;;7.82;;
80852;SDS011;70270;43.434;28.338;2023-08-20T08:51:49;14.35;;;7.60;;
80852;SDS011;70270;43.434;28.338;2023-08-20T08:54:35;14.30;;;7.45;;
80852;SDS011;70270;43.434;28.338;2023-08-20T08:57:20;9.40;;;6.97;;
80852;SDS011;70270;43.434;28.338;2023-08-20T09:00:06;18.98;;;8.88;;
80852;SDS011;70270;43.434;28.338;2023-08-20T09:02:51;11.57;;;6.82;;
80852;SDS011;70270;43.434;28.338;2023-08-20T09:05:45;11.60;;;6.32;;
80852;SDS011;70270;43.434;28.338;2023-08-20T09:08:33;11.30;;;5.45;;
80852;SDS011;70270;43.434;28.338;2023-08-20T09:11:17;11.38;;;6.25;;
80852;SDS011;70270;43.434;28.338;2023-08-20T09:14:02;11.13;;;6.40;;
80852;SDS011;70270;43.434;28.338;2023-08-20T09:16:46;11.45;;;5.72;;
80852;SDS011;70270;43.434;28.338;2023-08-20T09:19:35;7.95;;;5.15;;
80852;SDS011;70270;43.434;28.338;2023-08-20T09:22:23;10.02;;;6.15;;
80852;SDS011;70270;43.434;28.338;2023-08-20T09:25:07;7.78;;;6.10;;
80852;SDS011;70270;43.434;28.338;2023-08-20T09:28:02;10.00;;;5.53;;
80852;SDS011;70270;43.434;28.338;2023-08-20T09:30:58;9.52;;;5.68;;
80852;SDS011;70270;43.434;28.338;2023-08-20T09:33:52;9.52;;;5.75;;
80852;SDS011;70270;43.434;28.338;2023-08-20T09:36:37;9.90;;;5.00;;
80852;SDS011;70270;43.434;28.338;2023-08-20T09:39:22;8.30;;;5.57;;
80852;SDS011;70270;43.434;28.338;2023-08-20T09:42:07;9.38;;;6.28;;
80852;SDS011;70270;43.434;28.338;2023-08-20T09:44:53;9.60;;;6.22;;
80852;SDS011;70270;43.434;28.338;2023-08-20T09:47:38;8.38;;;6.07;;
80852;SDS011;70270;43.434;28.338;2023-08-20T09:50:25;9.05;;;5.50;;
80852;SDS011;70270;43.434;28.338;2023-08-20T09:53:12;9.13;;;5.72;;
80852;SDS011;70270;43.434;28.338;2023-08-20T09:56:21;9.13;;;5.65;;
80852;SDS011;70270;43.434;28.338;2023-08-20T09:59:14;8.63;;;5.45;;
80852;SDS011;70270;43.434;28.338;2023-08-20T10:02:01;9.40;;;5.38;;
80852;SDS011;70270;43.434;28.338;2023-08-20T10:07:32;7.18;;;5.13;;
80852;SDS011;70270;43.434;28.338;2023-08-20T10:10:16;8.85;;;5.18;;
80852;SDS011;70270;43.434;28.338;2023-08-20T10:13:01;6.85;;;4.82;;
80852;SDS011;70270;43.434;28.338;2023-08-20T10:15:48;10.38;;;5.50;;
80852;SDS011;70270;43.434;28.338;2023-08-20T10:18:34;10.93;;;5.50;;
80852;SDS011;70270;43.434;28.338;2023-08-20T10:21:19;13.60;;;5.22;;
80852;SDS011;70270;43.434;28.338;2023-08-20T10:24:07;10.77;;;5.38;;
80852;SDS011;70270;43.434;28.338;2023-08-20T10:27:08;10.57;;;5.30;;
80852;SDS011;70270;43.434;28.338;2023-08-20T10:29:56;13.13;;;5.40;;
80852;SDS011;70270;43.434;28.338;2023-08-20T10:38:22;8.85;;;5.40;;
80852;SDS011;70270;43.434;28.338;2023-08-20T10:41:07;8.20;;;5.03;;
80852;SDS011;70270;43.434;28.338;2023-08-20T10:43:57;9.95;;;5.57;;
80852;SDS011;70270;43.434;28.338;2023-08-20T10:46:51;7.47;;;4.70;;
80852;SDS011;70270;43.434;28.338;2023-08-20T10:52:24;10.00;;;5.10;;
80852;SDS011;70270;43.434;28.338;2023-08-20T10:55:11;7.90;;;5.30;;
80852;SDS011;70270;43.434;28.338;2023-08-20T10:57:58;9.30;;;5.35;;
80852;SDS011;70270;43.434;28.338;2023-08-20T11:01:05;8.55;;;5.38;;
80852;SDS011;70270;43.434;28.338;2023-08-20T11:04:03;14.52;;;5.53;;
80852;SDS011;70270;43.434;28.338;2023-08-20T11:06:55;6.65;;;5.38;;
80852;SDS011;70270;43.434;28.338;2023-08-20T11:09:40;10.68;;;5.93;;
80852;SDS011;70270;43.434;28.338;2023-08-20T11:12:28;10.05;;;5.60;;
80852;SDS011;70270;43.434;28.338;2023-08-20T11:15:13;10.10;;;6.07;;
80852;SDS011;70270;43.434;28.338;2023-08-20T11:18:00;11.80;;;6.40;;
80852;SDS011;70270;43.434;28.338;2023-08-20T11:20:44;7.80;;;5.38;;
80852;SDS011;70270;43.434;28.338;2023-08-20T11:23:29;8.73;;;6.32;;
80852;SDS011;70270;43.434;28.338;2023-08-20T11:26:17;8.98;;;5.30;;
80852;SDS011;70270;43.434;28.338;2023-08-20T11:29:05;10.85;;;5.38;;
80852;SDS011;70270;43.434;28.338;2023-08-20T11:31:50;7.97;;;5.07;;
80852;SDS011;70270;43.434;28.338;2023-08-20T11:34:35;9.57;;;5.30;;
80852;SDS011;70270;43.434;28.338;2023-08-20T11:37:21;7.57;;;5.03;;
80852;SDS011;70270;43.434;28.338;2023-08-20T11:40:09;8.75;;;4.97;;
80852;SDS011;70270;43.434;28.338;2023-08-20T11:42:53;9.95;;;5.57;;
80852;SDS011;70270;43.434;28.338;2023-08-20T11:45:45;15.27;;;5.20;;
80852;SDS011;70270;43.434;28.338;2023-08-20T11:48:31;11.45;;;5.70;;
80852;SDS011;70270;43.434;28.338;2023-08-20T11:51:15;10.40;;;5.38;;
80852;SDS011;70270;43.434;28.338;2023-08-20T11:53:59;9.95;;;5.68;;
80852;SDS011;70270;43.434;28.338;2023-08-20T11:56:48;9.85;;;5.82;;
80852;SDS011;70270;43.434;28.338;2023-08-20T11:59:33;9.13;;;4.93;;
80852;SDS011;70270;43.434;28.338;2023-08-20T12:02:24;9.40;;;4.57;;
80852;SDS011;70270;43.434;28.338;2023-08-20T12:05:10;9.80;;;5.13;;
80852;SDS011;70270;43.434;28.338;2023-08-20T12:07:58;6.25;;;5.13;;
80852;SDS011;70270;43.434;28.338;2023-08-20T12:10:44;9.07;;;4.72;;
80852;SDS011;70270;43.434;28.338;2023-08-20T12:13:29;9.95;;;4.97;;
80852;SDS011;70270;43.434;28.338;2023-08-20T12:16:13;9.07;;;4.97;;
80852;SDS011;70270;43.434;28.338;2023-08-20T12:18:57;7.28;;;5.03;;
80852;SDS011;70270;43.434;28.338;2023-08-20T12:21:42;12.90;;;5.55;;
80852;SDS011;70270;43.434;28.338;2023-08-20T12:27:12;8.88;;;4.93;;
80852;SDS011;70270;43.434;28.338;2023-08-20T12:29:56;15.38;;;4.60;;
80852;SDS011;70270;43.434;28.338;2023-08-20T12:32:40;13.55;;;5.22;;
80852;SDS011;70270;43.434;28.338;2023-08-20T12:35:25;10.38;;;5.07;;
80852;SDS011;70270;43.434;28.338;2023-08-20T12:38:09;9.77;;;4.53;;
80852;SDS011;70270;43.434;28.338;2023-08-20T12:40:54;9.32;;;4.18;;
80852;SDS011;70270;43.434;28.338;2023-08-20T12:43:38;9.90;;;4.72;;
80852;SDS011;70270;43.434;28.338;2023-08-20T12:46:23;13.55;;;4.63;;
80852;SDS011;70270;43.434;28.338;2023-08-20T12:49:07;7.75;;;4.85;;
80852;SDS011;70270;43.434;28.338;2023-08-20T12:51:51;10.25;;;4.85;;
80852;SDS011;70270;43.434;28.338;2023-08-20T12:54:36;8.05;;;4.60;;
80852;SDS011;70270;43.434;28.338;2023-08-20T12:57:20;15.82;;;5.40;;
80852;SDS011;70270;43.434;28.338;2023-08-20T13:00:05;12.95;;;4.80;;
80852;SDS011;70270;43.434;28.338;2023-08-20T13:02:54;10.90;;;4.53;;
80852;SDS011;70270;43.434;28.338;2023-08-20T13:08:24;8.35;;;4.57;;
80852;SDS011;70270;43.434;28.338;2023-08-20T13:11:09;9.30;;;4.35;;
80852;SDS011;70270;43.434;28.338;2023-08-20T13:14:00;6.15;;;4.40;;
80852;SDS011;70270;43.434;28.338;2023-08-20T13:16:45;5.88;;;4.38;;
80852;SDS011;70270;43.434;28.338;2023-08-20T13:19:30;6.97;;;4.35;;
80852;SDS011;70270;43.434;28.338;2023-08-20T13:22:14;8.55;;;4.43;;
80852;SDS011;70270;43.434;28.338;2023-08-20T13:24:59;9.50;;;4.65;;
80852;SDS011;70270;43.434;28.338;2023-08-20T13:27:43;14.20;;;4.88;;
80852;SDS011;70270;43.434;28.338;2023-08-20T13:33:13;7.45;;;4.63;;
80852;SDS011;70270;43.434;28.338;2023-08-20T13:35:58;8.38;;;4.75;;
80852;SDS011;70270;43.434;28.338;2023-08-20T13:38:43;13.85;;;4.65;;
80852;SDS011;70270;43.434;28.338;2023-08-20T13:41:27;10.82;;;4.93;;
80852;SDS011;70270;43.434;28.338;2023-08-20T13:44:12;12.65;;;5.25;;
80852;SDS011;70270;43.434;28.338;2023-08-20T13:46:56;9.88;;;5.05;;
80852;SDS011;70270;43.434;28.338;2023-08-20T13:49:40;12.82;;;5.22;;
80852;SDS011;70270;43.434;28.338;2023-08-20T13:52:26;16.52;;;6.00;;
80852;SDS011;70270;43.434;28.338;2023-08-20T13:55:10;12.77;;;6.15;;
80852;SDS011;70270;43.434;28.338;2023-08-20T13:57:55;10.43;;;6.20;;
80852;SDS011;70270;43.434;28.338;2023-08-20T14:00:40;9.43;;;5.82;;
80852;SDS011;70270;43.434;28.338;2023-08-20T14:06:09;12.93;;;6.00;;
80852;SDS011;70270;43.434;28.338;2023-08-20T14:08:53;9.75;;;5.60;;
80852;SDS011;70270;43.434;28.338;2023-08-20T14:11:42;12.02;;;5.43;;
80852;SDS011;70270;43.434;28.338;2023-08-20T14:14:33;8.05;;;5.05;;
80852;SDS011;70270;43.434;28.338;2023-08-20T14:17:17;9.90;;;5.38;;
80852;SDS011;70270;43.434;28.338;2023-08-20T14:20:05;8.18;;;5.35;;
80852;SDS011;70270;43.434;28.338;2023-08-20T14:22:51;9.65;;;5.60;;
80852;SDS011;70270;43.434;28.338;2023-08-20T14:25:35;10.02;;;5.68;;
80852;SDS011;70270;43.434;28.338;2023-08-20T14:28:25;15.07;;;6.60;;
80852;SDS011;70270;43.434;28.338;2023-08-20T14:31:10;12.25;;;6.00;;
80852;SDS011;70270;43.434;28.338;2023-08-20T14:33:54;12.98;;;6.43;;
80852;SDS011;70270;43.434;28.338;2023-08-20T14:36:39;8.20;;;5.53;;
80852;SDS011;70270;43.434;28.338;2023-08-20T14:39:23;12.65;;;5.68;;
80852;SDS011;70270;43.434;28.338;2023-08-20T14:42:08;7.38;;;5.35;;
80852;SDS011;70270;43.434;28.338;2023-08-20T14:44:52;11.63;;;5.70;;
80852;SDS011;70270;43.434;28.338;2023-08-20T14:47:38;31.48;;;7.35;;
80852;SDS011;70270;43.434;28.338;2023-08-20T14:50:22;13.70;;;5.97;;
80852;SDS011;70270;43.434;28.338;2023-08-20T14:53:10;15.45;;;5.60;;
80852;SDS011;70270;43.434;28.338;2023-08-20T14:55:55;25.00;;;6.65;;
80852;SDS011;70270;43.434;28.338;2023-08-20T14:58:42;12.30;;;5.88;;
80852;SDS011;70270;43.434;28.338;2023-08-20T15:01:27;11.52;;;6.10;;
80852;SDS011;70270;43.434;28.338;2023-08-20T15:04:11;13.80;;;5.63;;
80852;SDS011;70270;43.434;28.338;2023-08-20T15:06:56;11.18;;;5.55;;
80852;SDS011;70270;43.434;28.338;2023-08-20T15:09:40;9.90;;;5.90;;
80852;SDS011;70270;43.434;28.338;2023-08-20T15:12:25;15.80;;;5.80;;
80852;SDS011;70270;43.434;28.338;2023-08-20T15:15:15;10.98;;;5.32;;
80852;SDS011;70270;43.434;28.338;2023-08-20T15:18:00;11.30;;;5.93;;
80852;SDS011;70270;43.434;28.338;2023-08-20T15:20:44;9.95;;;5.55;;
80852;SDS011;70270;43.434;28.338;2023-08-20T15:23:29;11.50;;;6.60;;
80852;SDS011;70270;43.434;28.338;2023-08-20T15:26:18;13.52;;;5.88;;
80852;SDS011;70270;43.434;28.338;2023-08-20T15:29:03;12.90;;;6.88;;
80852;SDS011;70270;43.434;28.338;2023-08-20T15:31:49;13.45;;;6.03;;
80852;SDS011;70270;43.434;28.338;2023-08-20T15:34:37;13.25;;;5.72;;
80852;SDS011;70270;43.434;28.338;2023-08-20T15:37:22;11.15;;;5.75;;
80852;SDS011;70270;43.434;28.338;2023-08-20T15:40:07;15.93;;;5.80;;
80852;SDS011;70270;43.434;28.338;2023-08-20T15:43:01;15.43;;;6.10;;
80852;SDS011;70270;43.434;28.338;2023-08-20T15:45:49;8.43;;;5.40;;
80852;SDS011;70270;43.434;28.338;2023-08-20T15:48:33;15.10;;;5.63;;
80852;SDS011;70270;43.434;28.338;2023-08-20T15:51:18;13.13;;;5.65;;
80852;SDS011;70270;43.434;28.338;2023-08-20T15:54:03;15.75;;;5.57;;
80852;SDS011;70270;43.434;28.338;2023-08-20T15:56:47;9.63;;;5.00;;
80852;SDS011;70270;43.434;28.338;2023-08-20T15:59:32;11.88;;;5.47;;
80852;SDS011;70270;43.434;28.338;2023-08-20T16:02:17;10.75;;;5.63;;
80852;SDS011;70270;43.434;28.338;2023-08-20T16:05:02;11.93;;;5.63;;
80852;SDS011;70270;43.434;28.338;2023-08-20T16:07:46;14.13;;;5.20;;
80852;SDS011;70270;43.434;28.338;2023-08-20T16:10:31;11.30;;;4.95;;
80852;SDS011;70270;43.434;28.338;2023-08-20T16:13:15;13.07;;;5.80;;
80852;SDS011;70270;43.434;28.338;2023-08-20T16:15:59;12.75;;;6.30;;
80852;SDS011;70270;43.434;28.338;2023-08-20T16:18:44;12.75;;;6.00;;
80852;SDS011;70270;43.434;28.338;2023-08-20T16:21:28;14.88;;;5.78;;
80852;SDS011;70270;43.434;28.338;2023-08-20T16:24:13;7.22;;;4.93;;
80852;SDS011;70270;43.434;28.338;2023-08-20T16:26:57;11.90;;;5.80;;
80852;SDS011;70270;43.434;28.338;2023-08-20T16:29:45;12.13;;;5.53;;
80852;SDS011;70270;43.434;28.338;2023-08-20T16:32:29;13.05;;;5.03;;
80852;SDS011;70270;43.434;28.338;2023-08-20T16:35:16;13.10;;;6.32;;
80852;SDS011;70270;43.434;28.338;2023-08-20T16:38:01;10.80;;;5.50;;
80852;SDS011;70270;43.434;28.338;2023-08-20T16:40:50;11.68;;;5.72;;